createdAt,value
2018-12-20T00:02:23.204Z,18.27
2018-12-20T00:05:00.036Z,18.30
2018-12-20T00:07:37.074Z,18.17
2018-12-20T00:10:12.673Z,17.80
2018-12-20T00:12:48.604Z,17.85
2018-12-20T00:15:25.290Z,17.62
2018-12-20T00:18:06.471Z,20.45
2018-12-20T00:20:42.499Z,21.45
2018-12-20T00:23:20.850Z,22.42
2018-12-20T00:25:55.927Z,18.48
2018-12-20T00:28:33.984Z,21.52
2018-12-20T00:31:13.546Z,18.42
2018-12-20T00:33:47.547Z,20.57
2018-12-20T00:36:23.525Z,19.00
2018-12-20T00:38:59.974Z,17.05
2018-12-20T00:41:36.236Z,19.67
2018-12-20T00:44:11.652Z,19.05
2018-12-20T00:46:48.708Z,19.45
2018-12-20T00:49:24.486Z,17.15
2018-12-20T00:52:01.394Z,17.50
2018-12-20T00:54:37.531Z,20.00
2018-12-20T00:57:13.755Z,16.23
2018-12-20T00:59:49.750Z,21.30
2018-12-20T01:02:25.709Z,17.77
2018-12-20T01:05:02.481Z,21.52
2018-12-20T01:07:38.344Z,18.30
2018-12-20T01:11:38.534Z,18.02
2018-12-20T01:14:13.910Z,17.87
2018-12-20T01:16:50.755Z,20.52
2018-12-20T01:19:30.816Z,20.57
2018-12-20T01:22:08.148Z,17.40
2018-12-20T01:24:52.640Z,18.27
2018-12-20T01:27:28.131Z,19.92
2018-12-20T01:30:04.948Z,20.40
2018-12-20T01:32:47.056Z,21.60
2018-12-20T01:35:22.576Z,22.70
2018-12-20T01:37:58.579Z,17.67
2018-12-20T01:40:35.580Z,21.65
2018-12-20T01:43:11.817Z,17.35
2018-12-20T01:45:53.966Z,18.77
2018-12-20T01:48:40.162Z,22.55
2018-12-20T01:51:19.605Z,21.60
2018-12-20T01:53:56.972Z,19.12
2018-12-20T01:56:32.922Z,23.18
2018-12-20T01:59:14.500Z,24.35
2018-12-20T02:01:49.499Z,22.45
2018-12-20T02:04:25.568Z,24.10
2018-12-20T02:07:01.056Z,23.55
2018-12-20T02:09:50.080Z,24.75
2018-12-20T02:12:45.670Z,25.45
2018-12-20T02:15:31.988Z,25.10
2018-12-20T02:18:24.728Z,26.35
2018-12-20T02:21:21.230Z,27.10
2018-12-20T02:27:06.044Z,26.00
2018-12-20T02:29:48.504Z,25.72
2018-12-20T02:32:30.190Z,24.32
2018-12-20T02:35:16.643Z,22.13
2018-12-20T02:38:00.405Z,20.62
2018-12-20T02:40:39.528Z,27.70
2018-12-20T02:43:26.824Z,24.43
2018-12-20T02:46:06.404Z,22.85
2018-12-20T02:48:48.122Z,19.40
2018-12-20T02:51:32.134Z,21.55
2018-12-20T02:54:09.418Z,20.70
2018-12-20T02:56:46.359Z,24.80
2018-12-20T02:59:22.182Z,21.82
2018-12-20T03:02:02.796Z,21.62
2018-12-20T03:04:40.592Z,22.32
2018-12-20T03:07:20.473Z,22.02
2018-12-20T03:09:59.013Z,21.57
2018-12-20T03:12:34.308Z,19.23
2018-12-20T03:15:23.635Z,23.27
2018-12-20T03:18:00.115Z,17.32
2018-12-20T03:20:42.966Z,18.92
2018-12-20T03:23:24.783Z,19.23
2018-12-20T03:26:05.422Z,21.10
2018-12-20T03:28:40.478Z,18.10
2018-12-20T03:31:19.935Z,19.32
2018-12-20T03:33:56.177Z,19.73
2018-12-20T03:36:32.279Z,18.52
2018-12-20T03:39:09.712Z,20.48
2018-12-20T03:41:45.613Z,18.75
2018-12-20T03:44:20.875Z,18.10
2018-12-20T03:46:56.993Z,17.82
2018-12-20T03:49:37.184Z,16.85
2018-12-20T03:52:21.547Z,16.02
2018-12-20T03:55:14.334Z,15.55
2018-12-20T03:57:54.983Z,16.77
2018-12-20T04:00:30.501Z,19.90
2018-12-20T04:03:09.854Z,17.37
2018-12-20T04:05:52.239Z,17.32
2018-12-20T04:08:34.804Z,19.77
2018-12-20T04:11:10.055Z,15.95
2018-12-20T04:13:45.946Z,18.57
2018-12-20T04:16:28.287Z,18.37
2018-12-20T04:19:04.994Z,17.30
2018-12-20T04:21:40.397Z,17.87
2018-12-20T04:24:16.098Z,16.93
2018-12-20T04:26:53.607Z,16.57
2018-12-20T04:29:29.796Z,16.35
2018-12-20T04:32:09.822Z,19.07
2018-12-20T04:34:46.129Z,17.70
2018-12-20T04:37:21.379Z,17.90
2018-12-20T04:39:57.393Z,17.25
2018-12-20T04:42:34.756Z,21.65
2018-12-20T04:45:10.904Z,17.37
2018-12-20T04:47:48.355Z,17.50
2018-12-20T04:50:26.717Z,16.65
2018-12-20T04:53:02.935Z,17.95
2018-12-20T04:55:38.214Z,17.75
2018-12-20T04:58:15.357Z,18.02
2018-12-20T05:00:54.395Z,21.42
2018-12-20T05:03:42.886Z,17.70
2018-12-20T05:06:18.356Z,21.02
2018-12-20T05:08:54.108Z,18.65
2018-12-20T05:11:37.609Z,23.05
2018-12-20T05:14:12.939Z,18.23
2018-12-20T05:16:52.810Z,19.75
2018-12-20T05:19:28.558Z,22.85
2018-12-20T05:22:04.459Z,18.35
2018-12-20T05:24:40.227Z,22.00
2018-12-20T05:27:15.895Z,20.25
2018-12-20T05:29:51.961Z,20.32
2018-12-20T05:32:28.578Z,20.15
2018-12-20T05:35:07.262Z,21.50
2018-12-20T05:37:44.041Z,22.55
2018-12-20T05:40:19.028Z,21.23
2018-12-20T05:42:55.700Z,23.85
2018-12-20T05:45:33.507Z,23.87
2018-12-20T05:48:08.800Z,23.40
2018-12-20T05:50:45.035Z,24.40
2018-12-20T05:53:22.591Z,23.00
2018-12-20T05:55:59.942Z,21.77
2018-12-20T05:58:35.424Z,24.52
2018-12-20T06:01:11.374Z,21.95
2018-12-20T06:03:46.828Z,23.47
2018-12-20T06:06:22.788Z,24.07
2018-12-20T06:08:58.649Z,21.35
2018-12-20T06:11:36.996Z,23.65
2018-12-20T06:14:14.013Z,22.13
2018-12-20T06:16:49.942Z,23.57
2018-12-20T06:19:32.593Z,24.80
2018-12-20T06:22:07.885Z,26.82
2018-12-20T06:24:43.570Z,26.35
2018-12-20T06:27:20.891Z,23.45
2018-12-20T06:29:56.205Z,22.40
2018-12-20T06:32:31.272Z,24.87
2018-12-20T06:35:07.259Z,23.35
2018-12-20T06:37:43.018Z,24.00
2018-12-20T06:40:32.376Z,21.97
2018-12-20T06:43:13.738Z,24.67
2018-12-20T06:45:53.239Z,26.40
2018-12-20T06:48:28.496Z,25.48
2018-12-20T06:51:05.944Z,23.70
2018-12-20T06:53:41.023Z,25.55
2018-12-20T06:56:17.271Z,24.45
2018-12-20T06:58:53.036Z,27.13
2018-12-20T07:01:28.013Z,25.02
2018-12-20T07:04:02.942Z,25.10
2018-12-20T07:06:38.698Z,22.25
2018-12-20T07:09:14.659Z,23.95
2018-12-20T07:11:50.250Z,24.77
2018-12-20T07:14:25.343Z,25.17
2018-12-20T07:17:01.361Z,23.12
2018-12-20T07:19:36.299Z,24.02
2018-12-20T07:22:12.181Z,23.90
2018-12-20T07:24:47.136Z,26.33
2018-12-20T07:27:23.522Z,22.80
2018-12-20T07:29:59.134Z,26.60
2018-12-20T07:32:36.203Z,28.70
2018-12-20T07:35:11.799Z,24.82
2018-12-20T07:41:24.219Z,25.25
2018-12-20T07:44:05.831Z,27.52
2018-12-20T07:46:40.765Z,24.65
2018-12-20T07:49:15.668Z,21.93
2018-12-20T07:51:53.453Z,22.80
2018-12-20T07:54:30.406Z,23.57
2018-12-20T07:57:06.208Z,19.55
2018-12-20T07:59:42.948Z,24.63
2018-12-20T08:02:17.867Z,24.30
2018-12-20T08:04:54.538Z,22.07
2018-12-20T08:07:29.498Z,21.40
2018-12-20T08:10:05.149Z,26.50
2018-12-20T08:12:40.390Z,28.52
2018-12-20T08:15:16.388Z,23.10
2018-12-20T08:17:53.096Z,25.27
2018-12-20T08:20:29.071Z,20.45
2018-12-20T08:23:05.428Z,20.62
2018-12-20T08:25:41.982Z,20.55
2018-12-20T08:28:17.662Z,21.75
2018-12-20T08:30:52.501Z,20.32
2018-12-20T08:33:27.540Z,19.92
2018-12-20T08:36:02.512Z,19.55
2018-12-20T08:38:38.356Z,19.90
2018-12-20T08:41:14.120Z,20.02
2018-12-20T08:43:49.941Z,21.97
2018-12-20T08:46:26.764Z,19.10
2018-12-20T08:49:01.895Z,23.77
2018-12-20T08:51:37.486Z,22.17
2018-12-20T08:54:12.304Z,23.07
2018-12-20T08:56:47.130Z,20.05
2018-12-20T08:59:22.030Z,18.37
2018-12-20T09:01:57.929Z,19.32
2018-12-20T09:04:33.558Z,18.52
2018-12-20T09:08:32.767Z,21.77
2018-12-20T09:11:08.090Z,19.32
2018-12-20T09:13:43.019Z,19.02
2018-12-20T09:16:18.708Z,16.42
2018-12-20T09:18:53.517Z,14.95
2018-12-20T09:21:28.636Z,15.95
2018-12-20T09:24:06.468Z,13.38
2018-12-20T09:26:42.078Z,15.75
2018-12-20T09:29:17.144Z,16.10
2018-12-20T09:31:52.967Z,12.82
2018-12-20T09:34:28.110Z,13.00
2018-12-20T09:37:03.788Z,12.37
2018-12-20T09:39:38.611Z,13.55
2018-12-20T09:42:14.395Z,15.53
2018-12-20T09:44:50.113Z,10.43
2018-12-20T09:47:30.400Z,10.25
2018-12-20T09:50:06.165Z,12.05
2018-12-20T09:52:41.450Z,9.05
2018-12-20T09:55:17.256Z,10.60
2018-12-20T09:57:52.979Z,11.43
2018-12-20T10:00:28.758Z,10.30
2018-12-20T10:03:03.671Z,10.00
2018-12-20T10:05:39.495Z,10.63
2018-12-20T10:08:14.534Z,10.78
2018-12-20T10:10:50.377Z,8.45
2018-12-20T10:13:25.323Z,9.18
2018-12-20T10:16:02.143Z,12.20
2018-12-20T10:18:37.878Z,11.15
2018-12-20T10:21:13.790Z,8.53
2018-12-20T10:23:49.607Z,9.68
2018-12-20T10:26:24.503Z,9.55
2018-12-20T10:29:00.455Z,7.92
2018-12-20T10:31:37.932Z,7.25
2018-12-20T10:34:13.124Z,8.50
2018-12-20T10:36:48.011Z,10.50
2018-12-20T10:39:23.943Z,8.65
2018-12-20T10:41:59.159Z,9.20
2018-12-20T10:44:34.950Z,9.98
2018-12-20T10:47:16.199Z,11.70
2018-12-20T10:49:52.432Z,8.55
2018-12-20T10:52:27.491Z,7.30
2018-12-20T10:55:02.719Z,10.50
2018-12-20T10:57:37.702Z,9.70
2018-12-20T11:00:13.699Z,8.95
2018-12-20T11:03:58.991Z,8.90
2018-12-20T11:06:40.677Z,9.80
2018-12-20T11:10:21.023Z,10.28
2018-12-20T11:12:56.918Z,8.28
2018-12-20T11:15:33.526Z,8.10
2018-12-20T11:18:10.653Z,9.68
2018-12-20T11:20:46.422Z,9.40
2018-12-20T11:23:21.327Z,7.95
2018-12-20T11:25:57.122Z,7.22
2018-12-20T11:28:32.978Z,9.70
2018-12-20T11:31:10.901Z,8.68
2018-12-20T11:33:46.658Z,8.18
2018-12-20T11:36:22.417Z,8.23
2018-12-20T11:41:26.881Z,8.48
2018-12-20T11:44:02.021Z,10.68
2018-12-20T11:46:38.387Z,8.35
2018-12-20T11:49:13.796Z,9.55
2018-12-20T11:51:52.431Z,7.45
2018-12-20T11:54:28.458Z,8.98
2018-12-20T11:57:05.357Z,12.47
2018-12-20T11:59:43.784Z,9.70
2018-12-20T12:02:24.415Z,11.93
2018-12-20T12:05:00.013Z,8.83
2018-12-20T12:07:35.135Z,8.10
2018-12-20T12:10:11.514Z,6.42
2018-12-20T12:12:47.623Z,5.72
2018-12-20T12:15:23.020Z,6.80
2018-12-20T12:17:58.651Z,8.20
2018-12-20T12:20:43.293Z,6.85
2018-12-20T12:23:19.178Z,7.20
2018-12-20T12:25:54.485Z,6.45
2018-12-20T12:28:30.843Z,5.83
2018-12-20T12:31:06.128Z,7.20
2018-12-20T12:33:41.291Z,7.62
2018-12-20T12:36:16.334Z,10.25
2018-12-20T12:38:53.105Z,9.55
2018-12-20T12:41:30.006Z,9.40
2018-12-20T12:44:05.879Z,7.25
2018-12-20T12:46:40.818Z,10.80
2018-12-20T12:49:17.426Z,9.28
2018-12-20T12:51:53.547Z,8.80
2018-12-20T12:57:09.304Z,6.92
2018-12-20T12:59:44.438Z,6.45
2018-12-20T13:02:20.595Z,7.72
2018-12-20T13:04:56.280Z,6.33
2018-12-20T13:07:32.070Z,9.95
2018-12-20T13:10:07.081Z,7.90
2018-12-20T13:12:42.948Z,8.18
2018-12-20T13:15:17.902Z,8.93
2018-12-20T13:17:57.418Z,9.18
2018-12-20T13:20:32.662Z,7.85
2018-12-20T13:23:08.360Z,10.95
2018-12-20T13:25:44.228Z,7.62
2018-12-20T13:28:19.898Z,6.65
2018-12-20T13:30:55.679Z,9.98
2018-12-20T13:33:30.531Z,9.75
2018-12-20T13:36:09.689Z,11.97
2018-12-20T13:38:48.607Z,8.75
2018-12-20T13:41:24.472Z,7.83
2018-12-20T13:44:00.019Z,7.70
2018-12-20T13:46:35.479Z,10.93
2018-12-20T13:49:12.434Z,7.65
2018-12-20T13:51:48.313Z,10.13
2018-12-20T13:54:24.259Z,12.03
2018-12-20T13:56:59.528Z,9.88
2018-12-20T13:59:35.566Z,8.98
2018-12-20T14:02:11.131Z,9.15
2018-12-20T14:04:47.214Z,9.75
2018-12-20T14:07:22.811Z,8.68
2018-12-20T14:09:58.695Z,10.53
2018-12-20T14:12:34.559Z,11.28
2018-12-20T14:15:10.401Z,10.90
2018-12-20T14:17:46.157Z,12.78
2018-12-20T14:20:21.113Z,12.60
2018-12-20T14:22:57.269Z,9.43
2018-12-20T14:25:33.007Z,12.50
2018-12-20T14:28:08.623Z,12.45
2018-12-20T14:30:57.803Z,11.33
2018-12-20T14:33:33.138Z,11.78
2018-12-20T14:36:09.895Z,10.32
2018-12-20T14:38:45.570Z,11.22
2018-12-20T14:41:21.673Z,11.20
2018-12-20T14:43:57.106Z,13.08
2018-12-20T14:46:33.931Z,12.75
2018-12-20T14:49:09.844Z,11.83
2018-12-20T14:51:45.756Z,9.83
2018-12-20T14:54:20.782Z,11.12
2018-12-20T14:56:57.274Z,10.98
2018-12-20T14:59:32.430Z,12.15
2018-12-20T15:02:07.862Z,11.85
2018-12-20T15:04:43.637Z,14.15
2018-12-20T15:07:20.531Z,11.50
2018-12-20T15:09:56.387Z,10.65
2018-12-20T15:12:33.090Z,10.70
2018-12-20T15:15:09.668Z,8.30
2018-12-20T15:17:45.106Z,9.78
2018-12-20T15:20:21.073Z,8.95
2018-12-20T15:22:56.510Z,9.35
2018-12-20T15:25:32.193Z,12.07
2018-12-20T15:28:08.103Z,12.03
2018-12-20T15:30:44.013Z,12.40
2018-12-20T15:33:19.887Z,9.70
2018-12-20T15:35:56.040Z,11.55
2018-12-20T15:38:32.543Z,10.28
2018-12-20T15:41:07.590Z,10.65
2018-12-20T15:43:43.442Z,13.30
2018-12-20T15:46:18.573Z,15.23
2018-12-20T15:48:58.748Z,12.88
2018-12-20T15:51:34.643Z,8.55
2018-12-20T15:54:10.015Z,12.10
2018-12-20T15:56:45.817Z,12.37
2018-12-20T15:59:23.736Z,10.58
2018-12-20T16:02:01.051Z,12.70
2018-12-20T16:04:36.124Z,11.38
2018-12-20T16:07:11.905Z,12.85
2018-12-20T16:09:46.930Z,13.55
2018-12-20T16:12:21.966Z,11.70
2018-12-20T16:14:57.223Z,17.90
2018-12-20T16:17:33.010Z,14.50
2018-12-20T16:20:09.246Z,12.95
2018-12-20T16:22:47.853Z,15.20
2018-12-20T16:25:24.086Z,15.45
2018-12-20T16:27:59.522Z,12.30
2018-12-20T16:30:35.085Z,13.03
2018-12-20T16:33:10.102Z,15.43
2018-12-20T16:35:45.868Z,16.40
2018-12-20T16:38:21.671Z,17.87
2018-12-20T16:40:57.580Z,14.38
2018-12-20T16:43:33.515Z,16.23
2018-12-20T16:46:09.163Z,17.90
2018-12-20T16:48:44.086Z,19.00
2018-12-20T16:51:20.000Z,21.42
2018-12-20T16:53:55.089Z,17.40
2018-12-20T16:56:29.986Z,17.45
2018-12-20T16:59:05.059Z,16.48
2018-12-20T17:01:41.787Z,15.48
2018-12-20T17:04:16.926Z,11.63
2018-12-20T17:06:52.688Z,23.42
2018-12-20T17:09:28.521Z,17.60
2018-12-20T17:12:03.625Z,11.50
2018-12-20T17:14:40.647Z,16.37
2018-12-20T17:17:17.755Z,17.27
2018-12-20T17:19:53.754Z,14.13
2018-12-20T17:22:29.414Z,20.75
2018-12-20T17:25:04.859Z,17.65
2018-12-20T17:27:41.163Z,11.55
2018-12-20T17:30:16.998Z,14.53
2018-12-20T17:32:53.635Z,11.40
2018-12-20T17:35:28.466Z,15.83
2018-12-20T17:38:04.671Z,15.83
2018-12-20T17:40:40.477Z,19.45
2018-12-20T17:43:16.276Z,10.63
2018-12-20T17:45:51.508Z,13.75
2018-12-20T17:48:29.445Z,13.85
2018-12-20T17:51:05.050Z,14.60
2018-12-20T17:53:40.886Z,13.35
2018-12-20T17:56:16.602Z,13.93
2018-12-20T17:58:52.482Z,16.17
2018-12-20T18:08:32.737Z,13.48
2018-12-20T18:11:07.821Z,14.53
2018-12-20T18:13:43.500Z,17.32
2018-12-20T18:16:19.561Z,17.57
2018-12-20T18:18:56.166Z,15.58
2018-12-20T18:21:31.107Z,17.92
2018-12-20T18:24:07.999Z,17.57
2018-12-20T18:26:42.955Z,18.77
2018-12-20T18:29:18.806Z,14.70
2018-12-20T18:31:55.974Z,12.47
2018-12-20T18:34:32.755Z,15.10
2018-12-20T18:37:08.565Z,15.08
2018-12-20T18:39:44.351Z,17.15
2018-12-20T18:42:20.154Z,19.67
2018-12-20T18:44:56.798Z,17.15
2018-12-20T18:47:31.635Z,10.63
2018-12-20T18:50:08.356Z,16.77
2018-12-20T18:52:43.331Z,15.83
2018-12-20T18:55:19.317Z,15.35
2018-12-20T18:57:54.975Z,16.55
2018-12-20T19:00:32.263Z,14.85
2018-12-20T19:03:07.737Z,17.17
2018-12-20T19:05:44.180Z,14.83
2018-12-20T19:08:19.056Z,17.80
2018-12-20T19:10:55.255Z,20.97
2018-12-20T19:13:30.135Z,14.65
2018-12-20T19:23:02.134Z,16.37
2018-12-20T19:25:38.171Z,20.65
2018-12-20T19:28:15.015Z,24.12
2018-12-20T19:30:50.909Z,19.48
2018-12-20T19:33:29.220Z,21.37
2018-12-20T19:36:04.460Z,16.30
2018-12-20T19:38:41.282Z,18.73
2018-12-20T19:41:18.067Z,18.48
2018-12-20T19:43:54.014Z,17.75
2018-12-20T19:46:29.865Z,12.23
2018-12-20T19:49:05.887Z,23.65
2018-12-20T19:51:41.614Z,18.07
2018-12-20T19:54:17.415Z,21.33
2018-12-20T19:56:53.174Z,17.90
2018-12-20T19:59:28.205Z,18.27
2018-12-20T20:02:04.775Z,21.27
2018-12-20T20:04:40.075Z,13.15
2018-12-20T20:07:15.971Z,15.08
2018-12-20T20:09:52.968Z,14.47
2018-12-20T20:12:29.546Z,18.87
2018-12-20T20:15:06.747Z,15.10
2018-12-20T20:17:42.434Z,12.85
2018-12-20T20:20:17.394Z,14.07
2018-12-20T20:22:52.331Z,15.55
2018-12-20T20:25:28.344Z,17.70
2018-12-20T20:28:04.323Z,14.45
2018-12-20T20:30:40.312Z,19.10
2018-12-20T20:33:16.071Z,17.92
2018-12-20T20:35:53.374Z,16.85
2018-12-20T20:38:28.659Z,13.62
2018-12-20T20:41:04.545Z,15.90
2018-12-20T20:43:40.374Z,15.08
2018-12-20T20:46:16.430Z,18.82
2018-12-20T20:48:52.237Z,13.72
2018-12-20T20:51:28.317Z,19.23
2018-12-20T20:54:04.256Z,16.57
2018-12-20T20:56:40.411Z,16.90
2018-12-20T20:59:16.377Z,13.62
2018-12-20T21:01:52.095Z,12.07
2018-12-20T21:04:28.031Z,14.07
2018-12-20T21:07:03.988Z,17.60
2018-12-20T21:09:39.857Z,17.17
2018-12-20T21:12:22.872Z,19.65
2018-12-20T21:14:54.939Z,16.25
2018-12-20T21:17:31.715Z,18.00
2018-12-20T21:20:11.185Z,18.67
2018-12-20T21:22:47.419Z,16.23
2018-12-20T21:25:23.202Z,17.85
2018-12-20T21:27:59.057Z,16.73
2018-12-20T21:30:38.792Z,16.50
2018-12-20T21:33:13.727Z,17.77
2018-12-20T21:35:48.756Z,13.83
2018-12-20T21:38:24.633Z,20.40
2018-12-20T21:41:00.638Z,13.95
2018-12-20T21:43:36.262Z,11.60
2018-12-20T21:46:12.106Z,14.40
2018-12-20T21:48:47.850Z,18.15
2018-12-20T21:53:57.378Z,16.27
2018-12-20T21:56:32.664Z,11.28
2018-12-20T21:59:09.523Z,12.37
2018-12-20T22:01:45.668Z,16.15
2018-12-20T22:04:21.568Z,11.70
2018-12-20T22:06:56.506Z,15.08
2018-12-20T22:09:32.402Z,13.65
2018-12-20T22:12:08.298Z,11.85
2018-12-20T22:14:45.096Z,10.25
2018-12-20T22:17:21.873Z,6.92
2018-12-20T22:20:05.081Z,12.07
2018-12-20T22:22:43.445Z,8.98
2018-12-20T22:25:20.025Z,6.90
2018-12-20T22:27:57.444Z,6.28
2018-12-20T22:33:38.943Z,7.08
2018-12-20T22:36:24.083Z,7.87
2018-12-20T22:39:06.421Z,9.98
2018-12-20T22:41:43.108Z,11.73
2018-12-20T22:44:20.759Z,7.70
2018-12-20T22:46:57.401Z,11.03
2018-12-20T22:49:32.635Z,9.93
2018-12-20T22:52:07.575Z,5.85
2018-12-20T22:54:42.758Z,6.85
2018-12-20T22:57:18.522Z,9.40
2018-12-20T22:59:53.531Z,8.38
2018-12-20T23:02:29.406Z,8.73
2018-12-20T23:05:05.576Z,13.43
2018-12-20T23:07:41.909Z,10.60
2018-12-20T23:10:18.338Z,7.10
2018-12-20T23:12:54.668Z,8.53
2018-12-20T23:15:30.479Z,9.60
2018-12-20T23:18:06.305Z,8.20
2018-12-20T23:20:41.205Z,9.20
2018-12-20T23:23:17.058Z,10.55
2018-12-20T23:25:53.003Z,14.55
2018-12-20T23:28:28.486Z,12.28
2018-12-20T23:31:08.389Z,15.03
2018-12-20T23:33:43.378Z,7.95
2018-12-20T23:36:18.335Z,10.60
2018-12-20T23:38:54.934Z,10.15
2018-12-20T23:41:30.061Z,13.62
2018-12-20T23:44:05.830Z,10.43
2018-12-20T23:46:41.609Z,10.93
2018-12-20T23:49:16.547Z,13.20
2018-12-20T23:51:52.375Z,12.40
2018-12-20T23:54:28.646Z,10.60
2018-12-20T23:57:04.426Z,9.25
2018-12-20T23:59:39.543Z,12.37
